createdAt,value
2023-10-28T00:01:44.432Z,100587.25
2023-10-28T00:04:12.367Z,100582.16
2023-10-28T00:06:42.101Z,100588.22
2023-10-28T00:09:11.849Z,100591.72
2023-10-28T00:11:39.798Z,100590.94
2023-10-28T00:14:08.165Z,100591.06
2023-10-28T00:16:37.790Z,100591.78
2023-10-28T00:19:09.036Z,100598.81
2023-10-28T00:21:36.896Z,100591.13
2023-10-28T00:24:05.029Z,100589.19
2023-10-28T00:26:35.311Z,100578.06
2023-10-28T00:29:03.152Z,100585.00
2023-10-28T00:31:32.414Z,100576.59
2023-10-28T00:34:00.324Z,100592.13
2023-10-28T00:36:28.404Z,100584.38
2023-10-28T00:38:56.577Z,100585.22
2023-10-28T00:41:24.407Z,100583.50
2023-10-28T00:43:53.626Z,100578.47
2023-10-28T00:46:22.614Z,100585.22
2023-10-28T00:48:50.641Z,100586.03
2023-10-28T00:51:20.330Z,100584.50
2023-10-28T00:53:48.415Z,100585.28
2023-10-28T00:56:18.538Z,100586.03
2023-10-28T00:58:47.452Z,100582.84
2023-10-28T01:01:16.922Z,100587.00
2023-10-28T01:03:45.371Z,100583.66
2023-10-28T01:06:14.522Z,100586.22
2023-10-28T01:08:42.468Z,100586.16
2023-10-28T01:11:10.703Z,100588.81
2023-10-28T01:13:39.244Z,100593.16
2023-10-28T01:16:09.413Z,100588.81
2023-10-28T01:18:38.952Z,100586.16
2023-10-28T01:21:12.496Z,100585.34
2023-10-28T01:23:41.332Z,100586.31
2023-10-28T01:26:09.222Z,100579.41
2023-10-28T01:28:37.411Z,100585.34
2023-10-28T01:31:05.982Z,100592.31
2023-10-28T01:33:33.907Z,100584.50
2023-10-28T01:36:01.831Z,100579.25
2023-10-28T01:38:31.110Z,100588.81
2023-10-28T01:40:59.031Z,100587.09
2023-10-28T01:43:26.898Z,100585.63
2023-10-28T01:45:55.180Z,100584.56
2023-10-28T01:48:23.049Z,100593.25
2023-10-28T01:50:50.888Z,100588.13
2023-10-28T01:53:18.744Z,100585.69
2023-10-28T01:55:48.521Z,100590.78
2023-10-28T01:58:16.375Z,100585.63
2023-10-28T02:00:44.184Z,100584.19
2023-10-28T02:03:12.874Z,100584.19
2023-10-28T02:05:40.977Z,100582.59
2023-10-28T02:08:08.985Z,100579.38
2023-10-28T02:10:37.090Z,100573.38
2023-10-28T02:13:06.505Z,100567.28
2023-10-28T02:15:34.409Z,100577.53
2023-10-28T02:18:02.358Z,100575.16
2023-10-28T02:20:30.283Z,100572.50
2023-10-28T02:22:58.158Z,100572.66
2023-10-28T02:25:26.006Z,100571.91
2023-10-28T02:27:53.813Z,100573.63
2023-10-28T02:30:23.092Z,100569.31
2023-10-28T02:32:52.369Z,100574.47
2023-10-28T02:35:20.326Z,100575.50
2023-10-28T02:37:48.282Z,100577.13
2023-10-28T02:40:16.553Z,100577.19
2023-10-28T02:42:45.464Z,100584.09
2023-10-28T02:45:13.281Z,100576.34
2023-10-28T02:47:42.482Z,100578.94
2023-10-28T02:50:11.710Z,100580.78
2023-10-28T02:52:39.592Z,100584.22
2023-10-28T02:55:08.516Z,100579.06
2023-10-28T02:57:36.403Z,100580.72
2023-10-28T03:00:07.848Z,100581.63
2023-10-28T03:02:36.223Z,100584.28
2023-10-28T03:05:07.088Z,100575.81
2023-10-28T03:07:34.981Z,100585.28
2023-10-28T03:10:02.820Z,100589.66
2023-10-28T03:12:30.677Z,100584.56
2023-10-28T03:14:58.730Z,100586.41
2023-10-28T03:17:26.566Z,100591.66
2023-10-28T03:19:54.397Z,100600.38
2023-10-28T03:22:23.883Z,100603.69
2023-10-28T03:24:51.761Z,100606.38
2023-10-28T03:27:19.619Z,100609.97
2023-10-28T03:29:47.843Z,100612.69
2023-10-28T03:32:15.877Z,100611.22
2023-10-28T03:34:44.155Z,100613.91
2023-10-28T03:37:11.983Z,100599.22
2023-10-28T03:39:41.253Z,100609.72
2023-10-28T03:42:09.213Z,100606.44
2023-10-28T03:44:37.052Z,100600.75
2023-10-28T03:47:05.960Z,100600.63
2023-10-28T03:49:34.269Z,100593.94
2023-10-28T03:52:02.846Z,100594.88
2023-10-28T03:54:31.156Z,100593.31
2023-10-28T03:57:00.396Z,100594.31
2023-10-28T03:59:28.205Z,100600.81
2023-10-28T04:01:56.544Z,100596.47
2023-10-28T04:04:24.929Z,100595.78
2023-10-28T04:06:54.716Z,100597.34
2023-10-28T04:09:22.560Z,100600.28
2023-10-28T04:11:50.365Z,100595.97
2023-10-28T04:14:19.736Z,100605.44
2023-10-28T04:16:47.804Z,100606.28
2023-10-28T04:19:15.632Z,100601.88
2023-10-28T04:21:43.443Z,100603.59
2023-10-28T04:24:11.892Z,100609.47
2023-10-28T04:26:40.132Z,100609.47
2023-10-28T04:29:08.070Z,100603.53
2023-10-28T04:31:37.347Z,100615.53
2023-10-28T04:34:06.696Z,100615.59
2023-10-28T04:36:34.542Z,100612.81
2023-10-28T04:39:03.178Z,100619.69
2023-10-28T04:41:31.051Z,100616.06
2023-10-28T04:43:58.891Z,100613.63
2023-10-28T04:46:26.702Z,100613.50
2023-10-28T04:48:55.948Z,100615.94
2023-10-28T04:51:25.528Z,100618.66
2023-10-28T04:53:53.652Z,100621.91
2023-10-28T04:56:21.482Z,100619.44
2023-10-28T04:58:50.273Z,100612.53
2023-10-28T05:01:18.312Z,100623.75
2023-10-28T05:03:46.256Z,100627.31
2023-10-28T05:06:15.534Z,100629.84
2023-10-28T05:08:43.402Z,100624.72
2023-10-28T05:11:14.675Z,100627.38
2023-10-28T05:13:43.671Z,100626.50
2023-10-28T05:16:12.294Z,100618.66
2023-10-28T05:18:40.151Z,100630.72
2023-10-28T05:21:08.006Z,100633.34
2023-10-28T05:23:37.225Z,100629.94
2023-10-28T05:26:05.857Z,100624.66
2023-10-28T05:28:33.714Z,100619.50
2023-10-28T05:31:01.552Z,100630.72
2023-10-28T05:33:30.671Z,100630.66
2023-10-28T05:35:58.479Z,100630.66
2023-10-28T05:38:26.308Z,100631.50
2023-10-28T05:40:55.980Z,100635.13
2023-10-28T05:43:23.847Z,100632.41
2023-10-28T05:45:52.443Z,100628.19
2023-10-28T05:48:20.406Z,100633.41
2023-10-28T05:50:48.932Z,100632.41
2023-10-28T05:53:16.811Z,100635.16
2023-10-28T05:55:44.729Z,100643.63
2023-10-28T05:58:13.970Z,100642.69
2023-10-28T06:00:42.818Z,100638.28
2023-10-28T06:03:10.788Z,100637.44
2023-10-28T06:05:38.710Z,100652.03
2023-10-28T06:08:08.318Z,100653.00
2023-10-28T06:10:36.226Z,100663.28
2023-10-28T06:13:04.135Z,100662.28
2023-10-28T06:15:34.590Z,100665.78
2023-10-28T06:18:02.580Z,100669.25
2023-10-28T06:20:31.669Z,100665.84
2023-10-28T06:22:59.548Z,100668.31
2023-10-28T06:25:27.652Z,100664.88
2023-10-28T06:27:55.482Z,100664.09
2023-10-28T06:30:23.304Z,100668.38
2023-10-28T06:32:52.513Z,100666.66
2023-10-28T06:35:20.476Z,100674.47
2023-10-28T06:37:48.361Z,100676.16
2023-10-28T06:40:17.162Z,100679.50
2023-10-28T06:42:45.040Z,100683.00
2023-10-28T06:45:11.959Z,100687.25
2023-10-28T06:47:39.929Z,100688.06
2023-10-28T06:50:10.217Z,100685.59
2023-10-28T06:52:38.574Z,100680.47
2023-10-28T06:55:06.973Z,100692.38
2023-10-28T06:57:34.824Z,100696.66
2023-10-28T07:00:02.646Z,100698.31
2023-10-28T07:02:30.525Z,100703.53
2023-10-28T07:04:58.490Z,100704.28
2023-10-28T07:07:27.779Z,100706.97
2023-10-28T07:09:55.661Z,100713.69
2023-10-28T07:12:23.540Z,100713.75
2023-10-28T07:14:51.343Z,100722.16
2023-10-28T07:17:19.203Z,100721.25
2023-10-28T07:19:47.243Z,100717.72
2023-10-28T07:22:16.380Z,100726.31
2023-10-28T07:24:45.852Z,100727.16
2023-10-28T07:27:13.704Z,100728.03
2023-10-28T07:29:41.602Z,100721.94
2023-10-28T07:32:10.444Z,100735.66
2023-10-28T07:34:38.405Z,100736.50
2023-10-28T07:37:06.253Z,100734.72
2023-10-28T07:39:34.492Z,100737.31
2023-10-28T07:42:04.158Z,100740.59
2023-10-28T07:44:32.039Z,100739.94
2023-10-28T07:47:00.113Z,100745.06
2023-10-28T07:49:28.556Z,100744.09
2023-10-28T07:51:56.733Z,100746.59
2023-10-28T07:54:24.843Z,100747.25
2023-10-28T07:56:52.673Z,100747.25
2023-10-28T07:59:22.284Z,100748.88
2023-10-28T08:01:50.225Z,100746.94
2023-10-28T08:04:18.536Z,100752.13
2023-10-28T08:06:46.440Z,100759.75
2023-10-28T08:09:14.287Z,100769.13
2023-10-28T08:11:42.459Z,100769.06
2023-10-28T08:14:10.468Z,100769.72
2023-10-28T08:16:39.814Z,100775.50
2023-10-28T08:19:09.322Z,100771.94
2023-10-28T08:21:37.641Z,100783.97
2023-10-28T08:24:08.003Z,100776.22
2023-10-28T08:26:36.103Z,100781.34
2023-10-28T08:29:04.024Z,100781.41
2023-10-28T08:31:31.969Z,100789.91
2023-10-28T08:34:02.663Z,100784.72
2023-10-28T08:36:33.254Z,100782.16
2023-10-28T08:39:02.137Z,100790.03
2023-10-28T08:41:29.999Z,100786.63
2023-10-28T08:43:59.116Z,100795.19
2023-10-28T08:46:27.030Z,100801.28
2023-10-28T08:48:58.450Z,100795.38
2023-10-28T08:51:28.160Z,100793.59
2023-10-28T08:53:58.203Z,100792.91
2023-10-28T08:56:27.789Z,100799.66
2023-10-28T08:58:56.757Z,100805.59
2023-10-28T09:01:25.305Z,100792.53
2023-10-28T09:03:56.570Z,100802.06
2023-10-28T09:06:24.631Z,100799.72
2023-10-28T09:08:54.176Z,100804.81
2023-10-28T09:11:22.281Z,100798.75
2023-10-28T09:13:50.196Z,100815.22
2023-10-28T09:16:18.152Z,100813.28
2023-10-28T09:18:47.824Z,100810.69
2023-10-28T09:21:16.957Z,100824.66
2023-10-28T09:23:44.797Z,100812.41
2023-10-28T09:26:14.091Z,100825.19
2023-10-28T09:28:46.039Z,100818.28
2023-10-28T09:31:14.088Z,100820.69
2023-10-28T09:33:42.229Z,100830.06
2023-10-28T09:36:10.889Z,100819.72
2023-10-28T09:38:42.166Z,100815.25
2023-10-28T09:41:11.598Z,100823.75
2023-10-28T09:43:41.290Z,100826.22
2023-10-28T09:46:09.456Z,100822.78
2023-10-28T09:48:40.940Z,100829.69
2023-10-28T09:51:09.774Z,100830.53
2023-10-28T09:53:39.010Z,100827.81
2023-10-28T09:56:08.521Z,100814.56
2023-10-28T09:58:44.450Z,100832.19
2023-10-28T10:01:21.920Z,100833.78
2023-10-28T10:04:01.880Z,100842.31
2023-10-28T10:06:30.046Z,100839.72
2023-10-28T10:08:58.202Z,100831.38
2023-10-28T10:11:26.886Z,100841.47
2023-10-28T10:13:57.834Z,100831.84
2023-10-28T10:16:37.767Z,100837.00
2023-10-28T10:19:12.821Z,100833.72
2023-10-28T10:21:52.369Z,100832.75
2023-10-28T10:24:21.979Z,100822.34
2023-10-28T10:26:56.425Z,100827.56
2023-10-28T10:29:28.023Z,100825.13
2023-10-28T10:31:57.770Z,100828.44
2023-10-28T10:34:38.025Z,100824.06
2023-10-28T10:37:06.609Z,100825.84
2023-10-28T10:39:44.390Z,100823.31
2023-10-28T10:42:13.156Z,100828.38
2023-10-28T10:44:43.185Z,100814.53
2023-10-28T10:47:14.181Z,100817.31
2023-10-28T10:49:44.582Z,100822.28
2023-10-28T10:52:12.638Z,100823.25
2023-10-28T10:54:41.500Z,100818.84
2023-10-28T10:57:10.114Z,100828.25
2023-10-28T10:59:40.173Z,100819.56
2023-10-28T11:02:11.885Z,100819.69
2023-10-28T11:04:40.803Z,100813.44
2023-10-28T11:07:09.341Z,100814.16
2023-10-28T11:09:39.193Z,100815.69
2023-10-28T11:12:07.604Z,100812.25
2023-10-28T11:14:35.497Z,100821.59
2023-10-28T11:17:03.427Z,100819.88
2023-10-28T11:19:33.032Z,100817.28
2023-10-28T11:22:01.692Z,100822.69
2023-10-28T11:24:29.697Z,100815.94
2023-10-28T11:26:58.522Z,100822.81
2023-10-28T11:29:26.419Z,100818.47
2023-10-28T11:31:54.280Z,100813.13
2023-10-28T11:34:22.122Z,100817.72
2023-10-28T11:36:51.453Z,100815.72
2023-10-28T11:39:19.352Z,100807.78
2023-10-28T11:41:49.474Z,100816.09
2023-10-28T11:44:17.267Z,100819.88
2023-10-28T11:46:45.148Z,100816.09
2023-10-28T11:49:12.982Z,100813.38
2023-10-28T11:51:41.100Z,100811.59
2023-10-28T11:54:10.395Z,100818.50
2023-10-28T11:56:38.317Z,100812.63
2023-10-28T11:59:06.201Z,100804.03
2023-10-28T12:01:37.795Z,100815.97
2023-10-28T12:04:08.567Z,100815.84
2023-10-28T12:06:36.710Z,100813.38
2023-10-28T12:09:06.787Z,100807.19
2023-10-28T12:11:36.044Z,100803.97
2023-10-28T12:14:05.023Z,100804.63
2023-10-28T12:16:36.452Z,100806.28
2023-10-28T12:19:04.736Z,100804.75
2023-10-28T12:21:33.934Z,100805.38
2023-10-28T12:24:04.373Z,100804.41
2023-10-28T12:26:32.312Z,100807.06
2023-10-28T12:29:01.658Z,100809.72
2023-10-28T12:31:29.574Z,100812.25
2023-10-28T12:33:57.431Z,100810.66
2023-10-28T12:36:25.285Z,100809.91
2023-10-28T12:38:53.110Z,100811.84
2023-10-28T12:41:19.970Z,100809.97
2023-10-28T12:43:48.286Z,100816.03
2023-10-28T12:46:17.572Z,100810.81
2023-10-28T12:48:46.243Z,100812.25
2023-10-28T12:51:15.699Z,100820.50
2023-10-28T12:53:43.551Z,100822.91
2023-10-28T12:56:11.408Z,100821.94
2023-10-28T12:58:39.977Z,100825.22
2023-10-28T13:01:07.811Z,100826.06
2023-10-28T13:03:37.158Z,100833.84
2023-10-28T13:06:05.700Z,100823.47
2023-10-28T13:08:33.806Z,100832.09
2023-10-28T13:11:01.853Z,100830.34
2023-10-28T13:13:29.725Z,100823.34
2023-10-28T13:15:57.932Z,100839.69
2023-10-28T13:18:25.765Z,100842.28
2023-10-28T13:20:54.945Z,100840.94
2023-10-28T13:23:22.804Z,100843.53
2023-10-28T13:25:51.188Z,100846.72
2023-10-28T13:28:19.025Z,100849.38
2023-10-28T13:30:46.870Z,100844.19
2023-10-28T13:33:14.926Z,100845.78
2023-10-28T13:35:42.812Z,100845.19
2023-10-28T13:38:13.220Z,100857.34
2023-10-28T13:40:41.109Z,100854.75
2023-10-28T13:43:08.940Z,100852.03
2023-10-28T13:45:36.775Z,100854.53
2023-10-28T13:48:06.056Z,100860.56
2023-10-28T13:50:35.127Z,100851.16
2023-10-28T13:53:04.201Z,100845.84
2023-10-28T13:55:33.474Z,100840.81
2023-10-28T13:58:01.347Z,100837.53
2023-10-28T14:00:29.664Z,100840.31
2023-10-28T14:02:59.070Z,100837.00
2023-10-28T14:05:27.037Z,100839.78
2023-10-28T14:07:54.900Z,100848.59
2023-10-28T14:10:22.794Z,100846.78
2023-10-28T14:12:51.996Z,100854.59
2023-10-28T14:15:20.071Z,100855.50
2023-10-28T14:17:48.031Z,100855.44
2023-10-28T14:20:16.233Z,100857.84
2023-10-28T14:22:44.190Z,100865.53
2023-10-28T14:25:12.694Z,100859.44
2023-10-28T14:27:43.410Z,100860.44
2023-10-28T14:30:14.911Z,100869.13
2023-10-28T14:32:42.892Z,100866.53
2023-10-28T14:35:11.029Z,100859.66
2023-10-28T14:37:39.014Z,100857.06
2023-10-28T14:40:08.018Z,100863.09
2023-10-28T14:42:38.071Z,100869.94
2023-10-28T14:45:06.757Z,100867.34
2023-10-28T14:47:36.276Z,100869.25
2023-10-28T14:50:04.759Z,100875.31
2023-10-28T14:52:33.713Z,100876.28
2023-10-28T14:55:01.540Z,100875.31
2023-10-28T14:57:31.579Z,100873.63
2023-10-28T15:00:00.272Z,100879.78
2023-10-28T15:02:28.269Z,100884.97
2023-10-28T15:04:57.582Z,100888.44
2023-10-28T15:07:25.495Z,100880.03
2023-10-28T15:09:54.656Z,100877.69
2023-10-28T15:12:22.538Z,100874.63
2023-10-28T15:14:50.689Z,100876.41
2023-10-28T15:17:19.164Z,100880.00
2023-10-28T15:19:47.932Z,100884.53
2023-10-28T15:22:17.136Z,100883.91
2023-10-28T15:24:45.231Z,100896.06
2023-10-28T15:27:13.751Z,100894.25
2023-10-28T15:29:42.027Z,100896.84
2023-10-28T15:32:09.904Z,100902.81
2023-10-28T15:34:39.958Z,100890.81
2023-10-28T15:37:07.866Z,100893.59
2023-10-28T15:39:37.169Z,100897.03
2023-10-28T15:42:05.744Z,100897.03
2023-10-28T15:44:33.622Z,100892.72
2023-10-28T15:47:01.518Z,100903.88
2023-10-28T15:49:29.342Z,100903.88
2023-10-28T15:51:57.222Z,100897.03
2023-10-28T15:54:25.969Z,100899.66
2023-10-28T15:56:55.964Z,100906.75
2023-10-28T15:59:24.224Z,100908.63
2023-10-28T16:01:52.191Z,100914.56
2023-10-28T16:04:20.388Z,100917.34
2023-10-28T16:06:48.238Z,100920.78
2023-10-28T16:09:17.732Z,100911.22
2023-10-28T16:11:45.598Z,100915.38
2023-10-28T16:14:14.827Z,100913.75
2023-10-28T16:16:43.008Z,100916.38
2023-10-28T16:19:10.914Z,100923.13
2023-10-28T16:21:40.242Z,100924.03
2023-10-28T16:24:09.049Z,100910.38
2023-10-28T16:26:36.945Z,100918.97
2023-10-28T16:29:05.409Z,100924.97
2023-10-28T16:31:34.684Z,100923.28
2023-10-28T16:34:02.532Z,100922.38
2023-10-28T16:36:30.524Z,100927.63
2023-10-28T16:38:58.837Z,100920.72
2023-10-28T16:41:27.141Z,100931.06
2023-10-28T16:43:55.042Z,100926.72
2023-10-28T16:46:22.897Z,100929.25
2023-10-28T16:48:52.735Z,100928.41
2023-10-28T16:51:21.233Z,100937.13
2023-10-28T16:53:49.111Z,100936.16
2023-10-28T16:56:17.650Z,100929.19
2023-10-28T16:58:45.560Z,100937.06
2023-10-28T17:01:14.338Z,100935.31
2023-10-28T17:03:42.902Z,100931.06
2023-10-28T17:06:12.248Z,100935.38
2023-10-28T17:08:40.561Z,100936.22
2023-10-28T17:11:09.133Z,100933.56
2023-10-28T17:13:37.041Z,100936.16
2023-10-28T17:16:05.556Z,100930.19
2023-10-28T17:18:34.241Z,100929.38
2023-10-28T17:21:06.939Z,100929.44
2023-10-28T17:23:36.270Z,100930.44
2023-10-28T17:26:06.306Z,100925.38
2023-10-28T17:28:34.644Z,100928.06
2023-10-28T17:31:04.602Z,100924.63
2023-10-28T17:33:32.667Z,100936.41
2023-10-28T17:36:01.016Z,100939.09
2023-10-28T17:38:30.756Z,100945.19
2023-10-28T17:41:10.344Z,100944.28
2023-10-28T17:43:39.113Z,100945.13
2023-10-28T17:46:07.950Z,100951.22
2023-10-28T17:48:35.840Z,100946.06
2023-10-28T17:51:08.007Z,100947.94
2023-10-28T17:53:36.237Z,100947.25
2023-10-28T17:56:04.626Z,100959.34
2023-10-28T17:58:33.939Z,100958.69
2023-10-28T18:01:02.231Z,100952.75
2023-10-28T18:03:32.236Z,100961.19
2023-10-28T18:06:00.734Z,100955.19
2023-10-28T18:08:29.072Z,100952.66
2023-10-28T18:10:57.281Z,100956.09
2023-10-28T18:13:25.586Z,100953.50
2023-10-28T18:15:54.954Z,100949.25
2023-10-28T18:18:22.833Z,100954.53
2023-10-28T18:20:51.755Z,100958.94
2023-10-28T18:23:20.633Z,100963.09
2023-10-28T18:25:48.777Z,100960.56
2023-10-28T18:28:16.941Z,100964.00
2023-10-28T18:30:45.183Z,100961.53
2023-10-28T18:33:16.170Z,100962.50
2023-10-28T18:35:44.779Z,100963.31
2023-10-28T18:38:12.746Z,100971.06
2023-10-28T18:40:43.127Z,100960.03
2023-10-28T18:43:11.274Z,100963.50
2023-10-28T18:45:39.598Z,100961.75
2023-10-28T18:48:08.355Z,100962.72
2023-10-28T18:50:40.476Z,100956.75
2023-10-28T18:53:08.482Z,100963.72
2023-10-28T18:55:38.446Z,100963.72
2023-10-28T18:58:06.818Z,100966.41
2023-10-28T19:00:34.683Z,100963.72
2023-10-28T19:03:02.677Z,100968.06
2023-10-28T19:05:32.764Z,100969.84
2023-10-28T19:08:02.087Z,100969.00
2023-10-28T19:10:29.954Z,100976.69
2023-10-28T19:12:57.992Z,100979.16
2023-10-28T19:15:25.862Z,100982.66
2023-10-28T19:17:54.679Z,100986.84
2023-10-28T19:20:22.702Z,100991.19
2023-10-28T19:22:50.888Z,100998.09
2023-10-28T19:25:20.180Z,100996.47
2023-10-28T19:27:48.529Z,100993.91
2023-10-28T19:30:16.581Z,101001.59
2023-10-28T19:32:44.497Z,100993.72
2023-10-28T19:35:13.594Z,101002.25
2023-10-28T19:37:42.217Z,101001.53
2023-10-28T19:40:10.628Z,101003.25
2023-10-28T19:42:39.844Z,101010.09
2023-10-28T19:45:08.778Z,101000.72
2023-10-28T19:47:36.650Z,101019.72
2023-10-28T19:50:04.984Z,101011.91
2023-10-28T19:52:32.977Z,101017.91
2023-10-28T19:55:00.835Z,101012.75
2023-10-28T19:57:28.674Z,101019.66
2023-10-28T19:59:57.887Z,101022.47
2023-10-28T20:02:25.778Z,101021.50
2023-10-28T20:04:53.691Z,101017.31
2023-10-28T20:07:21.572Z,101018.19
2023-10-28T20:09:49.550Z,101017.41
2023-10-28T20:12:17.393Z,101026.88
2023-10-28T20:14:46.605Z,101020.22
2023-10-28T20:17:16.087Z,101013.16
2023-10-28T20:19:44.120Z,101021.72
2023-10-28T20:22:12.204Z,101022.63
2023-10-28T20:24:40.897Z,101014.88
2023-10-28T20:27:08.738Z,101017.41
2023-10-28T20:29:38.802Z,101014.94
2023-10-28T20:32:08.297Z,101031.41
2023-10-28T20:34:38.254Z,101018.56
2023-10-28T20:37:07.120Z,101031.34
2023-10-28T20:39:35.684Z,101031.31
2023-10-28T20:42:04.082Z,101029.53
2023-10-28T20:44:32.934Z,101028.72
2023-10-28T20:47:01.435Z,101033.69
2023-10-28T20:49:29.863Z,101036.25
2023-10-28T20:51:59.093Z,101029.41
2023-10-28T20:54:26.938Z,101036.25
2023-10-28T20:56:54.841Z,101042.28
2023-10-28T20:59:22.715Z,101041.44
2023-10-28T21:01:51.172Z,101042.28
2023-10-28T21:04:24.450Z,101041.44
2023-10-28T21:06:52.557Z,101041.59
2023-10-28T21:09:21.827Z,101040.81
2023-10-28T21:11:49.731Z,101044.22
2023-10-28T21:14:17.680Z,101041.63
2023-10-28T21:16:45.541Z,101037.38
2023-10-28T21:19:13.855Z,101040.88
2023-10-28T21:21:41.716Z,101040.13
2023-10-28T21:24:10.449Z,101043.59
2023-10-28T21:26:39.709Z,101046.25
2023-10-28T21:29:07.621Z,101044.50
2023-10-28T21:31:35.603Z,101044.56
2023-10-28T21:34:03.435Z,101041.13
2023-10-28T21:36:31.534Z,101036.88
2023-10-28T21:38:59.360Z,101044.63
2023-10-28T21:41:27.428Z,101044.66
2023-10-28T21:43:56.721Z,101046.50
2023-10-28T21:46:24.685Z,101048.22
2023-10-28T21:48:52.681Z,101048.28
2023-10-28T21:51:20.533Z,101049.19
2023-10-28T21:53:48.941Z,101052.63
2023-10-28T21:56:16.934Z,101055.16
2023-10-28T21:58:44.849Z,101055.25
2023-10-28T22:01:18.291Z,101053.53
2023-10-28T22:03:46.352Z,101057.03
2023-10-28T22:06:14.315Z,101062.09
2023-10-28T22:08:42.169Z,101056.94
2023-10-28T22:11:10.219Z,101055.34
2023-10-28T22:13:38.134Z,101057.09
2023-10-28T22:16:06.949Z,101064.81
2023-10-28T22:18:37.069Z,101066.50
2023-10-28T22:21:05.258Z,101065.03
2023-10-28T22:23:33.135Z,101067.47
2023-10-28T22:26:01.748Z,101070.91
2023-10-28T22:28:29.577Z,101061.34
2023-10-28T22:30:57.443Z,101058.72
2023-10-28T22:33:25.345Z,101056.19
2023-10-28T22:35:54.622Z,101058.00
2023-10-28T22:38:22.537Z,101055.41
2023-10-28T22:40:50.420Z,101048.59
2023-10-28T22:43:18.244Z,101054.50
2023-10-28T22:45:46.096Z,101051.13
2023-10-28T22:48:14.031Z,101040.78
2023-10-28T22:50:42.071Z,101045.94
2023-10-28T22:53:11.970Z,101046.81
2023-10-28T22:55:39.951Z,101050.34
2023-10-28T22:58:08.634Z,101042.59
2023-10-28T23:00:36.574Z,101053.75
2023-10-28T23:03:08.376Z,101058.13
2023-10-28T23:05:37.121Z,101058.09
2023-10-28T23:08:05.081Z,101057.28
2023-10-28T23:10:34.421Z,101053.13
2023-10-28T23:13:02.266Z,101059.88
2023-10-28T23:15:30.096Z,101061.53
2023-10-28T23:17:58.410Z,101058.03
2023-10-28T23:20:28.173Z,101058.00
2023-10-28T23:22:56.866Z,101057.13
2023-10-28T23:25:24.973Z,101058.88
2023-10-28T23:27:54.608Z,101063.97
2023-10-28T23:30:29.601Z,101058.88
2023-10-28T23:32:58.079Z,101061.50
2023-10-28T23:35:26.601Z,101058.09
2023-10-28T23:37:55.080Z,101057.22
2023-10-28T23:40:22.903Z,101044.38
2023-10-28T23:42:50.888Z,101048.78
2023-10-28T23:45:20.145Z,101053.94
2023-10-28T23:47:48.076Z,101050.66
2023-10-28T23:50:16.017Z,101047.22
2023-10-28T23:52:44.353Z,101048.84
2023-10-28T23:55:12.205Z,101039.38
2023-10-28T23:57:40.365Z,101051.38
